• Join FlightAware (Why Join?)
  • Login
  • US Flag 
02:05AM EDT


 

Airport Tracker/Info


-or-


 

Live Flight TrackerFlight Track Log ✈ RPA3436 ✈ 17-Oct-2013 ✈ KCHS - KDCA

Flight Track Log - Related Links

Times and Time Zones

All times are in EDT time to prevent confusion due to time zone crossing. See the RPA3436 flight status page for this flight to view local times or setup timezone preferences in your user account.

Time Position Orientation Groundspeed Altitude Reporting Facility
EDT Latitude Longitude Course Direction KTS MPH feet Rate Location/Type
08:20AM 33.0561 -80.0028 90° East 282 325 7,200  Level Jacksonville Center
08:21AM 33.1369 -79.9728 17° North 293 337 10,500 3,240 Climbing Jacksonville Center
08:22AM 33.2197 -79.9428 17° North 303 349 13,700 3,240 Climbing Jacksonville Center
08:23AM 33.3192 -79.9172 12° North 318 366 17,000 3,000 Climbing Jacksonville Center
08:24AM 33.6868 -79.6698 90° East  Level Estimated
08:24AM 33.4125 -79.8892 14° North 329 379 19,700  Level Jacksonville Center
08:25AM 33.5058 -79.8636 13° North 334 384 22,000 2,100 Climbing Jacksonville Center
08:26AM 33.6072 -79.8328 14° North 347 399 23,900 1,980 Climbing Jacksonville Center
08:27AM 33.7111 -79.8067 12° North 358 412 26,000 1,800 Climbing Jacksonville Center
08:28AM 33.8189 -79.7753 14° North 376 433 27,500 1,560 Climbing Jacksonville Center
08:29AM 33.9128 -79.6944 36° Northeast 397 457 29,200 1,320 Climbing Jacksonville Center
08:30AM 34.0397 -79.5414 45° Northeast 416 479 31,000 660 Climbing Washington Center
08:31AM 34.1203 -79.4397 46° Northeast 416 479 31,000  Level Washington Center
08:32AM 34.2050 -79.3383 45° Northeast 422 486 31,000  Level Washington Center
08:33AM 34.2997 -79.2447 39° Northeast 422 486 31,000  Level Washington Center
08:34AM 34.4017 -79.1861 25° Northeast 416 479 31,000  Level Washington Center
08:35AM 34.5078 -79.1253 25° Northeast 410 472 31,000  Level Washington Center
08:36AM 34.6117 -79.0642 26° Northeast 410 472 31,000  Level Washington Center
08:37AM 34.7156 -79.0056 25° Northeast 410 472 31,000  Level Washington Center
08:38AM 34.8217 -78.9442 25° Northeast 410 472 31,000  Level Washington Center
08:39AM 34.9256 -78.8825 26° Northeast 410 472 31,000  Level Washington Center
08:40AM 35.0294 -78.8233 25° Northeast 410 472 31,000  Level Washington Center
08:41AM 35.1356 -78.7617 25° Northeast 410 472 31,000  Level Washington Center
08:42AM 35.2394 -78.6997 26° Northeast 410 472 31,000  Level Washington Center
08:43AM 35.3453 -78.6375 26° Northeast 415 478 31,000  Level Washington Center
08:44AM 35.4514 -78.5728 26° Northeast 415 478 31,000  Level Washington Center
08:45AM 35.5550 -78.5103 26° Northeast 415 478 31,000 -180 Level Washington Center
08:46AM 35.6544 -78.4525 25° Northeast 415 478 30,700 -660 Descending Washington Center
08:47AM 35.7581 -78.3922 25° Northeast 415 478 29,700 -1,020 Descending Washington Center
08:48AM 35.8619 -78.3292 26° Northeast 409 471 28,700 -1,020 Descending Washington Center
08:49AM 35.9633 -78.2711 25° Northeast 409 471 27,700 -900 Descending Washington Center
08:50AM 36.0669 -78.2078 26° Northeast 409 471 27,000 -360 Descending Washington Center
08:51AM 36.1686 -78.1469 26° Northeast 409 471 27,000  Level Washington Center
08:52AM 36.2700 -78.0833 27° Northeast 409 471 27,000  Level Washington Center
08:53AM 36.3756 -78.0194 26° Northeast 409 471 27,000  Level Washington Center
08:54AM 36.4875 -77.9506 26° Northeast 409 471 27,000  Level Washington Center
08:55AM 36.5931 -77.8839 27° Northeast 414 476 27,000  Level Washington Center
08:56AM 36.6967 -77.8197 26° Northeast 414 476 27,000  Level Washington Center
08:57AM 36.8019 -77.7578 25° Northeast 414 476 27,000  Level Washington Center
08:58AM 36.9056 -77.6933 26° Northeast 414 476 27,000 -420 Level Washington Center
08:59AM 37.0119 -77.6858 North 384 442 26,200 -900 Descending Washington Center
09:00AM 37.0964 -77.7506 329° Northwest 347 399 25,200 -1,020 Descending Washington Center
09:01AM 37.1806 -77.8156 328° Northwest 346 398 24,200 -1,020 Descending Washington Center
09:02AM 37.2836 -77.7767 17° North 346 398 23,200 -1,020 Descending Washington Center
09:03AM 37.3747 -77.7008 33° Northeast 360 414 22,200 -660 Descending Washington Center
09:04AM 37.4575 -77.6117 41° Northeast 366 421 22,000 -240 Descending Washington Center
09:05AM 37.5425 -77.5222 40° Northeast 380 437 21,800 -600 Descending Washington Center
09:06AM 37.6253 -77.4350 40° Northeast 386 444 20,800 -1,320 Descending Washington Center
09:07AM 37.7078 -77.3478 40° Northeast 386 444 19,200 -1,740 Descending Washington Center
09:08AM 37.7883 -77.2656 39° Northeast 381 438 17,400 -1,860 Descending Washington Center
09:09AM 37.8803 -77.2414 12° North 347 399 15,600 -1,860 Descending Washington Center
09:10AM 37.9703 -77.2222 10° North 336 387 13,800 -1,680 Descending Washington Center
09:11AM 38.0497 -77.2108 North 324 373 12,200 -1,740 Descending Washington Center
09:12AM 38.1356 -77.1914 10° North 313 360 10,400 -1,140 Descending Washington Center
09:13AM 38.2256 -77.1697 11° North 303 349 10,000 -240 Descending Washington Center
09:14AM 38.2922 -77.1553 10° North 303 349 10,000  Level Washington Center
09:15AM 38.3864 -77.1386 North 303 349 10,000  Level Washington Center
09:16AM 38.4681 -77.1217 North 298 343 10,000 -660 Level Washington Center
09:17AM 38.5517 -77.1047 North 298 343 8,700 -1,740 Descending Washington Center
09:18AM 38.6394 -77.0853 10° North 293 337 6,600 -1,380 Descending Washington Center
09:19AM 38.7125 -77.0708 North 278 320 6,000 -300 Descending Washington Center
09:20AM 38.7750 -77.0803 353° North 242 278 6,000 -300 Level Washington Center
09:21AM 38.8500 -77.1333 331° Northwest 235 270 5,400 -480 Descending Potomac TRACON
09:22AM 38.8833 -77.1833 311° West 227 261 5,000 -240 Descending Potomac TRACON
09:23AM 38.9333 -77.2333 322° Northwest 194 223 5,000 -600 Level Potomac TRACON
09:24AM 38.9667 -77.2000 38° Northeast 181 208 3,900 -1,200 Descending Potomac TRACON
09:25AM 38.9667 -77.1500 90° East 192 221 2,800 -900 Descending Potomac TRACON
09:26AM 38.9333 -77.1167 142° Southeast 166 191 2,200 -780 Descending Potomac TRACON
09:27AM 38.9000 -77.0833 142° Southeast 157 181 1,400 -900 Descending Potomac TRACON
09:28AM 38.8833 -77.0500 123° Southeast 131 151 500 -900 Descending Potomac TRACON